Time;durP1;ratioP1;P1;durP2;ratioP2;P2;SDS_P1;SDS_P2;PMS_P1;PMS_P2;Temp;Humidity;BMP_temperature;BMP_pressure;BME280_temperature;BME280_humidity;BME280_pressure;Samples;Min_cycle;Max_cycle;Signal;HPM_P1;HPM_P2
2022/01/24 00:00:51;;;;;;;11.63;5.88;;;7.90;95.10;;;;;;4998277;28;20061;-89
2022/01/24 00:03:17;;;;;;;12.70;5.57;;;7.90;95.10;;;;;;4922889;28;20030;-90
2022/01/24 00:05:43;;;;;;;10.23;5.23;;;7.90;95.10;;;;;;4970789;28;20308;-89
2022/01/24 00:08:08;;;;;;;12.35;5.63;;;7.90;95.00;;;;;;4956274;28;20043;-89
2022/01/24 00:10:37;;;;;;;14.57;6.13;;;7.80;95.00;;;;;;4958770;28;20543;-90
2022/01/24 00:18:08;;;;;;;9.90;4.97;;;7.80;94.80;;;;;;4956994;28;20105;-90
2022/01/24 00:28:28;;;;;;;8.55;4.10;;;7.70;94.60;;;;;;4987958;28;20042;-89
2022/01/24 00:30:55;;;;;;;8.23;3.83;;;7.70;94.60;;;;;;4976345;28;20022;-89
2022/01/24 00:33:21;;;;;;;8.95;3.95;;;7.60;94.60;;;;;;4990711;28;20033;-90
2022/01/24 00:35:47;;;;;;;9.07;4.60;;;7.60;94.60;;;;;;4938227;28;20594;-89
2022/01/24 00:38:14;;;;;;;8.00;4.13;;;7.60;94.60;;;;;;4959732;28;20065;-90
2022/01/24 00:40:42;;;;;;;9.32;4.20;;;7.60;94.70;;;;;;4941979;28;20050;-89
2022/01/24 00:43:46;;;;;;;8.27;4.03;;;7.60;94.70;;;;;;5000310;28;20031;-89
2022/01/24 00:46:29;;;;;;;8.63;4.15;;;7.50;94.70;;;;;;4962125;28;20248;-90
2022/01/24 00:56:54;;;;;;;7.87;3.73;;;7.50;94.70;;;;;;4965145;28;20068;-89
2022/01/24 00:59:20;;;;;;;8.32;3.72;;;7.50;94.70;;;;;;4961417;28;20046;-89
2022/01/24 01:01:46;;;;;;;6.90;3.57;;;7.50;94.70;;;;;;4957364;28;20031;-89
2022/01/24 01:04:11;;;;;;;7.80;3.63;;;7.40;94.70;;;;;;4969608;28;20030;-89
2022/01/24 01:06:40;;;;;;;7.67;3.57;;;7.50;94.80;;;;;;4946315;28;20037;-89
2022/01/24 01:20:03;;;;;;;7.10;3.88;;;7.40;94.70;;;;;;4998208;28;20041;-90
2022/01/24 01:22:28;;;;;;;8.38;4.10;;;7.40;94.70;;;;;;4947204;28;20033;-89
2022/01/24 01:24:55;;;;;;;7.67;4.00;;;7.40;94.70;;;;;;4936734;28;20027;-89
2022/01/24 01:27:27;;;;;;;8.45;4.00;;;7.40;94.80;;;;;;4966665;28;20366;-89
2022/01/24 01:30:01;;;;;;;8.00;3.78;;;7.40;94.80;;;;;;4972432;28;20491;-89
2022/01/24 01:35:18;;;;;;;8.48;3.90;;;7.40;94.80;;;;;;4999468;28;20034;-89
2022/01/24 01:56:07;;;;;;;7.60;4.25;;;7.40;94.80;;;;;;4993293;28;20035;-89
2022/01/24 01:58:33;;;;;;;7.77;3.70;;;7.40;94.70;;;;;;4952345;28;20045;-90
2022/01/24 02:01:03;;;;;;;7.82;4.03;;;7.30;94.70;;;;;;4960015;28;20031;-90
2022/01/24 02:03:30;;;;;;;7.55;3.75;;;7.40;94.60;;;;;;4959348;28;20022;-90
2022/01/24 02:05:56;;;;;;;8.73;4.13;;;7.40;94.70;;;;;;4964719;28;20026;-90
2022/01/24 02:08:23;;;;;;;7.70;3.55;;;7.30;94.60;;;;;;4949341;28;20404;-90
2022/01/24 02:10:49;;;;;;;7.53;3.47;;;7.30;94.60;;;;;;4960532;28;20263;-90
2022/01/24 02:13:15;;;;;;;7.10;3.33;;;7.30;94.60;;;;;;4958022;28;20031;-90
2022/01/24 02:25:59;;;;;;;7.40;3.92;;;7.30;94.40;;;;;;4991396;28;20563;-90
2022/01/24 02:28:28;;;;;;;8.18;3.70;;;7.30;94.40;;;;;;4952433;28;20042;-90
2022/01/24 02:31:24;;;;;;;6.72;3.38;;;7.30;94.60;;;;;;4961793;28;20090;-90
2022/01/24 02:33:51;;;;;;;7.40;3.27;;;7.30;94.60;;;;;;4992472;28;20038;-90
2022/01/24 02:36:23;;;;;;;8.05;3.28;;;7.30;94.60;;;;;;5003457;28;20092;-90
2022/01/24 02:49:33;;;;;;;7.10;3.03;;;7.20;94.60;;;;;;4962428;28;20022;-90
2022/01/24 02:52:10;;;;;;;6.88;2.95;;;7.30;94.50;;;;;;4966108;28;20027;-90
2022/01/24 02:54:38;;;;;;;7.70;3.53;;;7.30;94.50;;;;;;4924924;28;20617;-90
2022/01/24 02:57:06;;;;;;;7.32;3.47;;;7.20;94.70;;;;;;4991915;28;20035;-90
2022/01/24 02:59:32;;;;;;;7.53;3.33;;;7.20;94.60;;;;;;4971847;28;20027;-90
2022/01/24 03:01:58;;;;;;;7.65;3.40;;;7.20;94.70;;;;;;4947102;28;20534;-90
2022/01/24 03:04:24;;;;;;;6.82;2.60;;;7.20;94.60;;;;;;4949974;28;20662;-90
2022/01/24 03:06:50;;;;;;;7.67;3.90;;;7.20;94.60;;;;;;4946954;28;20245;-90
2022/01/24 03:09:16;;;;;;;7.10;3.63;;;7.20;94.50;;;;;;4964681;28;20393;-90
2022/01/24 03:14:19;;;;;;;7.45;3.45;;;7.20;94.50;;;;;;4992789;28;20034;-90
2022/01/24 03:16:45;;;;;;;6.55;3.50;;;7.20;94.50;;;;;;4946282;28;20232;-90
2022/01/24 03:19:11;;;;;;;7.68;3.50;;;7.20;94.50;;;;;;4952493;28;20097;-90
2022/01/24 03:21:37;;;;;;;6.93;2.90;;;7.20;94.50;;;;;;4957186;28;20035;-89
2022/01/24 03:24:03;;;;;;;8.13;3.58;;;7.10;94.50;;;;;;4963451;28;20038;-90
2022/01/24 03:26:29;;;;;;;7.77;3.20;;;7.20;94.60;;;;;;4940714;28;20424;-90
2022/01/24 03:28:54;;;;;;;5.85;2.88;;;7.10;94.60;;;;;;4958996;28;20423;-90
2022/01/24 03:31:20;;;;;;;7.13;3.07;;;7.10;94.60;;;;;;4949190;28;20536;-90
2022/01/24 03:33:46;;;;;;;7.10;3.00;;;7.10;94.60;;;;;;4973335;28;20585;-90
2022/01/24 03:36:11;;;;;;;6.63;3.20;;;7.10;94.60;;;;;;4931831;28;20034;-90
2022/01/24 03:38:37;;;;;;;6.93;3.13;;;7.10;94.60;;;;;;4959162;28;20594;-90
2022/01/24 03:41:04;;;;;;;7.45;3.05;;;7.10;94.60;;;;;;4966915;28;20085;-90
2022/01/24 03:43:29;;;;;;;7.43;3.40;;;7.10;94.60;;;;;;4960826;28;20019;-90
2022/01/24 03:46:25;;;;;;;7.22;3.20;;;7.10;94.60;;;;;;4986314;28;20022;-90
2022/01/24 03:48:55;;;;;;;6.13;3.08;;;7.10;94.50;;;;;;4954090;28;20759;-90
2022/01/24 03:51:23;;;;;;;7.38;3.40;;;7.10;94.50;;;;;;4967169;28;20033;-90
2022/01/24 03:53:49;;;;;;;6.53;3.43;;;7.10;94.50;;;;;;4965571;28;20323;-90
2022/01/24 03:56:15;;;;;;;6.22;3.08;;;7.10;94.50;;;;;;4970018;28;20042;-90
2022/01/24 03:58:42;;;;;;;6.78;3.83;;;7.10;94.60;;;;;;4983404;28;20579;-90
2022/01/24 04:01:09;;;;;;;7.50;3.25;;;7.10;94.50;;;;;;4947548;28;20030;-90
2022/01/24 04:03:36;;;;;;;7.78;3.70;;;7.10;94.60;;;;;;4949563;28;20550;-90
2022/01/24 04:06:02;;;;;;;6.33;3.07;;;7.10;94.60;;;;;;4972643;28;20026;-90
2022/01/24 04:08:28;;;;;;;6.82;3.50;;;7.10;94.60;;;;;;4981492;28;20038;-90
2022/01/24 04:10:56;;;;;;;7.13;3.33;;;7.10;94.60;;;;;;4966541;28;20023;-90
2022/01/24 04:13:35;;;;;;;7.53;3.60;;;7.00;94.60;;;;;;4946753;28;20031;-90
2022/01/24 04:16:24;;;;;;;8.18;3.55;;;7.00;94.50;;;;;;4971135;28;20089;-90
2022/01/24 04:21:26;;;;;;;7.53;3.53;;;7.10;94.40;;;;;;4990668;28;20023;-90
2022/01/24 04:26:27;;;;;;;7.00;3.60;;;7.10;94.50;;;;;;4989856;28;20026;-90
2022/01/24 04:28:53;;;;;;;7.40;3.53;;;7.10;94.50;;;;;;4959823;28;20296;-90
2022/01/24 04:31:18;;;;;;;8.13;3.45;;;7.10;94.50;;;;;;4983119;28;20424;-90
2022/01/24 04:33:44;;;;;;;6.90;2.87;;;7.10;94.50;;;;;;4941594;28;20594;-90
2022/01/24 04:36:10;;;;;;;7.53;3.20;;;7.00;94.50;;;;;;4962105;28;20030;-90
2022/01/24 04:38:36;;;;;;;7.22;2.83;;;7.00;94.50;;;;;;4950972;28;20443;-90
2022/01/24 04:41:07;;;;;;;7.18;3.30;;;7.10;94.50;;;;;;5005630;28;20038;-90
2022/01/24 04:43:51;;;;;;;7.43;3.43;;;7.00;94.50;;;;;;4934422;28;20019;-90
2022/01/24 04:47:18;;;;;;;7.13;2.88;;;7.10;94.50;;;;;;4963514;28;20058;-90
2022/01/24 04:56:52;;;;;;;6.65;3.20;;;7.10;94.50;;;;;;4996297;28;20564;-90
2022/01/24 04:59:18;;;;;;;6.97;3.08;;;7.10;94.60;;;;;;4953219;28;20038;-90
2022/01/24 05:01:43;;;;;;;6.90;3.30;;;7.00;94.50;;;;;;4959370;28;20222;-90
2022/01/24 05:04:09;;;;;;;5.77;2.80;;;7.00;94.50;;;;;;4963789;28;20129;-90
2022/01/24 05:06:35;;;;;;;6.43;3.07;;;7.00;94.50;;;;;;4982670;28;20672;-90
2022/01/24 05:09:01;;;;;;;8.02;3.25;;;7.10;94.60;;;;;;4955892;28;20019;-90
2022/01/24 05:12:18;;;;;;;8.60;3.53;;;7.00;94.50;;;;;;4957758;28;20092;-90
2022/01/24 05:25:09;;;;;;;6.90;2.60;;;6.90;94.30;;;;;;4951247;28;20088;-90
2022/01/24 05:27:35;;;;;;;8.68;3.97;;;6.90;94.40;;;;;;4958905;28;20042;-90
2022/01/24 05:30:00;;;;;;;7.37;3.53;;;6.90;94.70;;;;;;4958200;28;20527;-90
2022/01/24 05:32:26;;;;;;;8.55;4.10;;;6.80;94.40;;;;;;4958559;28;20019;-90
2022/01/24 05:34:52;;;;;;;8.13;3.40;;;6.80;94.50;;;;;;4960344;28;20279;-90
2022/01/24 05:37:17;;;;;;;7.20;3.50;;;6.90;94.50;;;;;;4953398;28;20023;-90
2022/01/24 05:39:43;;;;;;;8.50;3.63;;;6.80;94.50;;;;;;4958288;28;20144;-90
2022/01/24 05:42:08;;;;;;;8.38;3.83;;;6.80;94.50;;;;;;4953701;28;20058;-90
2022/01/24 05:44:34;;;;;;;8.57;3.67;;;6.80;94.50;;;;;;4960076;28;20308;-90
2022/01/24 05:47:00;;;;;;;7.25;3.80;;;6.90;94.50;;;;;;4957634;28;20032;-90
2022/01/24 05:49:25;;;;;;;8.03;3.73;;;6.80;94.50;;;;;;4989510;28;20027;-90
2022/01/24 05:51:51;;;;;;;8.17;3.50;;;6.90;94.50;;;;;;4955908;28;20330;-90
2022/01/24 05:54:17;;;;;;;6.72;3.38;;;6.80;94.50;;;;;;4960326;28;20093;-90
2022/01/24 05:56:42;;;;;;;8.80;3.97;;;6.80;94.50;;;;;;4984586;28;20113;-90
2022/01/24 05:59:08;;;;;;;8.07;3.58;;;6.80;94.50;;;;;;4969928;28;20027;-90
2022/01/24 06:01:34;;;;;;;7.70;3.50;;;6.90;94.50;;;;;;4963215;28;20057;-90
2022/01/24 06:03:59;;;;;;;8.73;3.58;;;6.90;94.50;;;;;;4967002;28;20030;-90
2022/01/24 06:06:25;;;;;;;8.10;3.93;;;6.80;94.50;;;;;;4961872;28;20232;-90
2022/01/24 06:08:50;;;;;;;7.30;3.40;;;6.80;94.50;;;;;;4942617;28;20165;-90
2022/01/24 06:11:17;;;;;;;7.10;3.27;;;6.80;94.50;;;;;;4958162;28;20038;-90
2022/01/24 06:13:45;;;;;;;8.98;3.55;;;6.80;94.50;;;;;;4997503;28;20026;-90
2022/01/24 06:16:11;;;;;;;7.03;3.13;;;6.80;94.50;;;;;;4962813;28;20034;-90
2022/01/24 06:18:36;;;;;;;7.47;3.67;;;6.80;94.50;;;;;;4984921;28;20476;-90
2022/01/24 06:21:02;;;;;;;8.90;3.87;;;6.80;94.50;;;;;;4960696;28;20031;-90
2022/01/24 06:23:28;;;;;;;8.27;3.83;;;6.80;94.50;;;;;;4939895;28;21047;-90
2022/01/24 06:25:54;;;;;;;9.27;4.32;;;6.80;94.50;;;;;;4984126;28;20331;-90
2022/01/24 06:28:19;;;;;;;8.13;3.27;;;6.80;94.50;;;;;;4934976;28;20181;-90
2022/01/24 06:30:45;;;;;;;7.90;3.22;;;6.80;94.50;;;;;;4991147;28;20488;-90
2022/01/24 06:33:11;;;;;;;7.97;3.80;;;6.80;94.80;;;;;;4945430;28;20280;-90
2022/01/24 06:35:37;;;;;;;7.60;3.50;;;6.80;94.80;;;;;;4970296;28;20043;-90
2022/01/24 06:38:02;;;;;;;9.53;3.87;;;6.80;94.40;;;;;;4964911;28;20035;-90
2022/01/24 06:40:28;;;;;;;6.97;2.90;;;6.80;94.40;;;;;;4946496;28;20791;-90
2022/01/24 06:42:53;;;;;;;5.80;3.10;;;6.70;94.40;;;;;;4959537;28;20027;-90
2022/01/24 06:45:19;;;;;;;7.30;3.60;;;6.80;94.40;;;;;;4956277;28;20122;-90
2022/01/24 06:47:45;;;;;;;6.20;3.17;;;6.70;94.40;;;;;;4928269;28;20022;-90
2022/01/24 06:50:11;;;;;;;7.28;3.25;;;6.70;94.50;;;;;;4988298;28;20027;-90
2022/01/24 06:52:37;;;;;;;9.20;3.93;;;6.70;94.50;;;;;;4947580;28;20140;-90
2022/01/24 06:55:04;;;;;;;7.85;3.72;;;6.70;94.50;;;;;;4975869;28;20038;-90
2022/01/24 06:57:30;;;;;;;8.57;3.70;;;6.70;94.50;;;;;;4965972;28;20046;-90
2022/01/24 06:59:55;;;;;;;9.63;4.10;;;6.70;94.50;;;;;;4979789;28;20430;-90
2022/01/24 07:02:21;;;;;;;9.80;3.77;;;6.70;94.50;;;;;;4947726;28;20186;-90
2022/01/24 07:04:47;;;;;;;8.20;3.80;;;6.70;94.50;;;;;;4954604;28;20110;-90
2022/01/24 07:07:14;;;;;;;7.50;3.80;;;6.70;94.50;;;;;;4972149;28;20026;-90
2022/01/24 07:09:40;;;;;;;8.85;3.22;;;6.70;94.50;;;;;;4940042;28;20023;-90
2022/01/24 07:12:08;;;;;;;7.85;3.78;;;6.60;94.50;;;;;;4957757;28;20019;-90
2022/01/24 07:14:34;;;;;;;7.25;3.72;;;6.70;94.50;;;;;;4947163;28;20072;-90
2022/01/24 07:17:07;;;;;;;7.30;3.47;;;6.70;94.60;;;;;;4956579;28;20316;-90
2022/01/24 07:19:33;;;;;;;10.05;3.85;;;6.70;94.50;;;;;;4960987;28;20042;-90
2022/01/24 07:22:01;;;;;;;7.53;3.35;;;6.70;94.50;;;;;;4940762;28;20016;-90
2022/01/24 07:24:27;;;;;;;7.30;3.83;;;6.60;94.50;;;;;;4948068;28;20035;-90
2022/01/24 07:26:53;;;;;;;8.87;3.73;;;6.70;94.60;;;;;;4928857;28;20244;-90
2022/01/24 07:29:20;;;;;;;7.22;3.42;;;6.70;94.60;;;;;;4946345;28;20092;-90
2022/01/24 07:31:48;;;;;;;7.93;3.63;;;6.60;94.60;;;;;;4958832;28;20031;-90
2022/01/24 07:34:15;;;;;;;7.30;3.58;;;6.70;94.60;;;;;;4978246;28;20404;-90
2022/01/24 07:36:41;;;;;;;8.43;4.27;;;6.60;94.60;;;;;;4958488;28;20030;-90
2022/01/24 07:39:07;;;;;;;7.97;3.63;;;6.70;94.70;;;;;;4977058;28;20077;-90
2022/01/24 07:41:41;;;;;;;8.68;3.90;;;6.60;94.60;;;;;;4940945;28;20023;-90
2022/01/24 07:44:07;;;;;;;7.97;3.55;;;6.60;94.60;;;;;;4959304;28;20085;-90
2022/01/24 07:46:34;;;;;;;8.13;3.67;;;6.60;94.60;;;;;;4969022;28;20469;-90
2022/01/24 07:49:02;;;;;;;8.73;4.20;;;6.60;94.60;;;;;;4947349;28;20642;-90
2022/01/24 07:51:28;;;;;;;7.43;3.42;;;6.60;94.60;;;;;;4985821;28;20069;-90
2022/01/24 07:53:53;;;;;;;9.37;3.63;;;6.60;94.60;;;;;;4949362;28;20109;-90
2022/01/24 07:56:19;;;;;;;9.18;4.03;;;6.70;94.80;;;;;;4976940;28;20576;-90
2022/01/24 07:58:45;;;;;;;8.63;4.45;;;6.60;94.70;;;;;;4955094;28;20101;-90
2022/01/24 08:01:15;;;;;;;7.43;3.20;;;6.60;94.70;;;;;;4946066;28;20058;-90
2022/01/24 08:03:41;;;;;;;8.07;3.80;;;6.60;94.60;;;;;;4943993;28;20364;-90
2022/01/24 08:06:07;;;;;;;8.40;4.22;;;6.70;94.70;;;;;;4971982;28;20019;-90
2022/01/24 08:08:33;;;;;;;9.77;4.30;;;6.70;94.70;;;;;;4993908;28;20029;-90
2022/01/24 08:10:58;;;;;;;7.80;3.43;;;6.70;94.80;;;;;;4956895;28;20039;-90
2022/01/24 08:13:24;;;;;;;7.50;3.53;;;6.70;94.80;;;;;;4948822;28;20031;-90
2022/01/24 08:15:49;;;;;;;8.47;4.57;;;6.70;94.80;;;;;;4948496;28;20883;-90
2022/01/24 08:18:15;;;;;;;7.30;3.47;;;6.70;94.90;;;;;;4990961;28;20043;-90
2022/01/24 08:20:41;;;;;;;8.13;3.88;;;6.70;95.20;;;;;;4943426;28;20112;-90
2022/01/24 08:23:11;;;;;;;9.70;4.10;;;6.80;94.90;;;;;;4976784;28;20685;-90
2022/01/24 08:25:37;;;;;;;8.40;4.07;;;6.80;94.80;;;;;;4962197;28;20482;-89
2022/01/24 08:28:04;;;;;;;9.43;4.57;;;6.90;94.90;;;;;;4949069;28;20031;-90
2022/01/24 08:30:30;;;;;;;9.40;4.47;;;6.80;94.90;;;;;;4947836;28;20030;-90
2022/01/24 08:32:56;;;;;;;8.55;4.35;;;6.90;94.90;;;;;;4954687;28;20031;-90
2022/01/24 08:35:22;;;;;;;7.73;3.93;;;6.90;95.00;;;;;;4948669;28;20104;-90
2022/01/24 08:37:48;;;;;;;9.30;4.20;;;6.90;95.00;;;;;;4959450;28;20280;-90
2022/01/24 08:40:22;;;;;;;7.80;4.60;;;6.90;95.00;;;;;;5013919;28;20030;-90
2022/01/24 08:42:57;;;;;;;9.25;4.43;;;7.00;95.00;;;;;;4973843;28;20373;-90
2022/01/24 08:48:09;;;;;;;9.63;4.00;;;7.00;95.10;;;;;;4955617;28;20042;-90
2022/01/24 08:50:36;;;;;;;8.05;4.50;;;7.00;95.00;;;;;;4948923;28;20589;-90
2022/01/24 08:53:03;;;;;;;8.55;4.30;;;7.10;95.10;;;;;;4964405;28;20042;-90
2022/01/24 08:55:30;;;;;;;9.68;4.35;;;7.10;95.10;;;;;;4965613;28;20031;-90
2022/01/24 08:57:57;;;;;;;9.30;4.03;;;7.10;95.20;;;;;;4995416;28;20022;-90
2022/01/24 09:00:23;;;;;;;8.47;4.30;;;7.10;95.20;;;;;;4938162;28;20027;-90
2022/01/24 09:02:50;;;;;;;8.68;4.18;;;7.20;95.30;;;;;;4957377;28;20651;-90
2022/01/24 09:05:17;;;;;;;9.02;4.50;;;7.20;95.40;;;;;;4989994;28;20023;-90
2022/01/24 09:07:44;;;;;;;9.20;4.53;;;7.20;95.30;;;;;;4973020;28;20682;-90
2022/01/24 09:10:10;;;;;;;8.65;4.22;;;7.30;95.30;;;;;;4961783;28;20129;-90
2022/01/24 09:12:35;;;;;;;10.23;4.30;;;7.30;95.20;;;;;;4960271;28;20027;-89
2022/01/24 09:15:02;;;;;;;8.68;4.47;;;7.40;95.40;;;;;;4962630;28;20388;-89
2022/01/24 09:17:28;;;;;;;10.25;4.82;;;7.40;95.50;;;;;;4946267;28;20043;-90
2022/01/24 09:19:53;;;;;;;10.40;5.30;;;7.40;95.50;;;;;;4982093;28;20551;-90
2022/01/24 09:22:19;;;;;;;8.88;4.32;;;7.50;95.50;;;;;;4979286;28;20051;-90
2022/01/24 09:24:45;;;;;;;11.03;4.87;;;7.50;95.60;;;;;;4952879;28;20522;-89
2022/01/24 09:27:10;;;;;;;8.43;4.30;;;7.50;95.70;;;;;;4963339;28;20069;-89
2022/01/24 09:29:36;;;;;;;8.57;4.43;;;7.60;95.80;;;;;;4963251;28;20117;-90
2022/01/24 09:32:03;;;;;;;9.25;4.85;;;7.60;95.90;;;;;;4960125;28;20464;-89
2022/01/24 09:34:28;;;;;;;8.40;4.43;;;7.70;96.10;;;;;;4969813;28;20057;-89
2022/01/24 09:36:55;;;;;;;11.20;5.50;;;7.80;96.30;;;;;;4959163;28;20031;-89
2022/01/24 09:39:20;;;;;;;9.00;4.65;;;7.90;96.60;;;;;;4972347;28;20531;-90
2022/01/24 09:41:47;;;;;;;8.33;4.63;;;8.00;97.00;;;;;;4997157;28;20202;-90
2022/01/24 09:44:13;;;;;;;8.60;4.50;;;8.20;97.30;;;;;;4962848;28;20551;-90
2022/01/24 09:46:44;;;;;;;9.55;4.63;;;8.40;97.60;;;;;;4960560;28;20192;-90
2022/01/24 09:49:10;;;;;;;10.40;5.22;;;8.60;97.70;;;;;;4965108;28;20579;-90
2022/01/24 09:51:37;;;;;;;8.70;4.60;;;8.90;97.90;;;;;;4979345;28;20472;-89
2022/01/24 09:54:04;;;;;;;8.32;4.18;;;9.10;98.70;;;;;;4985685;28;20023;-90
2022/01/24 09:56:31;;;;;;;10.88;5.43;;;9.40;98.50;;;;;;4962917;28;20038;-90
2022/01/24 09:58:56;;;;;;;11.10;4.93;;;9.70;98.60;;;;;;4965098;28;20504;-90
2022/01/24 10:01:23;;;;;;;10.43;5.13;;;10.00;98.30;;;;;;4947107;28;20046;-90
2022/01/24 10:04:28;;;;;;;9.75;4.85;;;10.20;98.00;;;;;;4960946;28;20129;-90
2022/01/24 10:07:11;;;;;;;10.00;4.55;;;10.60;96.50;;;;;;4949946;28;20036;-90
2022/01/24 10:09:42;;;;;;;9.02;4.93;;;10.90;97.70;;;;;;4922420;28;20044;-90
2022/01/24 10:18:11;;;;;;;9.73;5.18;;;12.20;97.90;;;;;;4979554;28;20039;-90
2022/01/24 10:20:39;;;;;;;9.25;5.38;;;12.60;96.90;;;;;;4970080;28;20900;-91
2022/01/24 10:23:21;;;;;;;8.77;5.00;;;13.10;97.70;;;;;;4946190;28;20081;-90
2022/01/24 10:25:48;;;;;;;9.80;5.57;;;13.50;97.70;;;;;;4967973;28;20229;-90
2022/01/24 10:28:25;;;;;;;10.47;5.83;;;13.90;97.40;;;;;;5006292;28;20087;-91
2022/01/24 10:31:11;;;;;;;9.57;5.63;;;14.30;96.00;;;;;;4962713;28;20491;-91
2022/01/24 10:34:22;;;;;;;9.23;5.60;;;14.70;94.80;;;;;;4948343;28;20030;-90
2022/01/24 10:36:51;;;;;;;10.02;5.90;;;15.20;93.80;;;;;;4988741;28;20157;-90
2022/01/24 10:39:27;;;;;;;10.18;5.78;;;15.50;95.80;;;;;;4965971;28;20035;-90
2022/01/24 10:42:28;;;;;;;9.77;6.13;;;15.90;94.70;;;;;;4965286;28;20392;-91
2022/01/24 10:44:54;;;;;;;9.57;5.80;;;16.10;92.30;;;;;;4959405;28;20031;-91
2022/01/24 10:47:30;;;;;;;9.70;5.40;;;16.40;94.20;;;;;;4958010;28;20030;-91
2022/01/24 10:49:59;;;;;;;9.38;5.50;;;16.60;93.70;;;;;;4954356;28;20066;-90
2022/01/24 10:52:28;;;;;;;8.00;5.22;;;16.90;94.80;;;;;;4963059;28;20035;-90
2022/01/24 10:55:15;;;;;;;8.33;4.93;;;17.10;93.90;;;;;;4981478;28;20031;-90
2022/01/24 10:57:42;;;;;;;8.82;5.60;;;17.40;92.00;;;;;;4959313;28;20046;-91
2022/01/24 11:00:10;;;;;;;9.77;5.90;;;17.60;93.40;;;;;;4962785;28;20035;-91
2022/01/24 11:02:41;;;;;;;10.23;6.38;;;17.70;93.10;;;;;;4954292;28;20382;-90
2022/01/24 11:05:25;;;;;;;8.88;5.78;;;17.90;91.90;;;;;;4957531;28;20400;-91
2022/01/24 11:07:59;;;;;;;8.50;5.33;;;18.10;89.60;;;;;;4965659;28;20323;-90
2022/01/24 11:10:29;;;;;;;8.95;5.38;;;18.20;92.40;;;;;;4961965;28;20054;-91
2022/01/24 11:12:55;;;;;;;8.50;5.50;;;18.40;92.20;;;;;;4944762;28;20042;-91
2022/01/24 11:15:22;;;;;;;9.27;5.50;;;18.60;93.00;;;;;;4959944;28;20034;-90
2022/01/24 11:17:48;;;;;;;10.03;6.50;;;18.80;92.80;;;;;;4960872;28;20075;-91
2022/01/24 11:20:18;;;;;;;10.30;5.97;;;18.90;91.80;;;;;;4947515;28;20057;-90
2022/01/24 11:22:54;;;;;;;8.98;5.60;;;19.00;91.40;;;;;;4955675;28;20252;-90
2022/01/24 11:25:20;;;;;;;9.30;5.80;;;19.10;90.50;;;;;;4979477;28;20558;-91
2022/01/24 11:27:47;;;;;;;9.48;5.90;;;19.20;91.50;;;;;;4959793;28;20567;-91
2022/01/24 11:30:20;;;;;;;8.63;5.60;;;19.30;91.30;;;;;;4965958;28;20491;-91
2022/01/24 11:33:12;;;;;;;9.57;5.95;;;19.50;91.20;;;;;;4966528;28;20647;-90
2022/01/24 11:35:52;;;;;;;8.63;5.32;;;19.70;88.20;;;;;;4949047;28;20299;-91
2022/01/24 11:38:38;;;;;;;8.63;5.50;;;19.80;88.00;;;;;;4971600;28;20034;-90
2022/01/24 11:41:13;;;;;;;8.38;5.75;;;19.90;85.90;;;;;;4996685;28;20023;-90
2022/01/24 11:43:45;;;;;;;8.83;5.53;;;19.90;88.70;;;;;;4990483;28;20239;-90
2022/01/24 11:46:32;;;;;;;9.30;5.25;;;19.90;88.70;;;;;;4986428;28;20030;-90
2022/01/24 11:49:07;;;;;;;8.90;5.88;;;19.90;83.10;;;;;;4982883;28;20058;-91
2022/01/24 11:51:34;;;;;;;10.20;6.30;;;20.00;86.90;;;;;;4944528;28;20037;-91
2022/01/24 11:54:01;;;;;;;9.32;6.35;;;20.10;89.20;;;;;;4949337;28;20034;-91
2022/01/24 11:56:32;;;;;;;9.53;6.17;;;20.30;88.80;;;;;;4969745;28;20511;-90
2022/01/24 11:59:22;;;;;;;8.73;5.93;;;20.40;86.60;;;;;;4959720;28;20388;-90
2022/01/24 12:02:04;;;;;;;9.88;6.07;;;20.60;82.60;;;;;;4965328;28;20639;-90
2022/01/24 12:04:52;;;;;;;9.48;6.10;;;20.70;89.30;;;;;;4981472;28;20023;-90
2022/01/24 12:07:26;;;;;;;9.85;6.75;;;20.90;78.90;;;;;;4963899;28;20026;-91
2022/01/24 12:09:54;;;;;;;9.63;6.13;;;21.00;81.60;;;;;;4942189;28;20344;-90
2022/01/24 12:12:39;;;;;;;9.68;6.07;;;21.00;86.30;;;;;;4962522;28;20018;-91
2022/01/24 12:15:07;;;;;;;9.02;5.93;;;21.10;79.20;;;;;;4942435;28;20497;-91
2022/01/24 12:17:52;;;;;;;9.57;6.18;;;21.20;86.80;;;;;;4966894;28;20550;-91
2022/01/24 12:20:48;;;;;;;9.13;6.03;;;21.40;79.80;;;;;;4961862;28;20031;-90
2022/01/24 12:23:20;;;;;;;10.03;5.77;;;21.50;77.40;;;;;;4954978;28;20049;-91
2022/01/24 12:25:54;;;;;;;8.73;5.63;;;21.50;84.70;;;;;;4970513;28;20058;-91
2022/01/24 12:28:27;;;;;;;9.02;6.20;;;21.70;83.40;;;;;;4963060;28;20547;-90
2022/01/24 12:31:05;;;;;;;9.05;6.07;;;21.80;82.20;;;;;;4936044;28;20034;-90
2022/01/24 12:33:50;;;;;;;8.75;5.45;;;21.80;81.20;;;;;;4978262;28;20096;-90
2022/01/24 12:36:36;;;;;;;9.00;5.60;;;21.90;84.50;;;;;;4973915;28;20506;-91
2022/01/24 12:39:13;;;;;;;9.13;5.90;;;21.90;84.60;;;;;;4945552;28;20552;-91
2022/01/24 12:41:46;;;;;;;10.27;6.10;;;22.00;77.60;;;;;;4986927;28;20030;-90
2022/01/24 12:46:18;;;;;;;10.00;6.18;;;21.90;82.40;;;;;;4969722;28;20034;-91
2022/01/24 12:46:57;;;;;;;8.05;5.38;;;21.90;84.40;;;;;;4961156;28;20633;-91
2022/01/24 12:49:26;;;;;;;9.63;5.80;;;22.00;85.60;;;;;;4977368;28;20034;-90
2022/01/24 12:51:52;;;;;;;10.48;6.50;;;22.00;85.80;;;;;;4981600;28;20491;-90
2022/01/24 12:54:17;;;;;;;10.98;6.82;;;22.10;85.00;;;;;;4993762;28;20035;-91
2022/01/24 12:56:43;;;;;;;9.87;6.27;;;22.10;81.50;;;;;;4963415;28;20062;-90
2022/01/24 12:59:09;;;;;;;10.23;6.80;;;22.10;81.30;;;;;;4968758;28;20213;-91
2022/01/24 13:01:37;;;;;;;10.98;7.07;;;22.00;80.20;;;;;;4951374;28;20070;-90
2022/01/24 13:04:10;;;;;;;10.77;6.67;;;21.90;79.50;;;;;;4992540;28;20022;-90
2022/01/24 13:06:38;;;;;;;10.05;6.53;;;21.80;78.10;;;;;;4962025;28;20118;-90
2022/01/24 13:09:15;;;;;;;9.30;6.20;;;21.70;80.20;;;;;;4947506;28;20090;-90
2022/01/24 13:11:54;;;;;;;11.60;7.07;;;21.60;78.10;;;;;;4993686;28;20034;-90
2022/01/24 13:14:27;;;;;;;11.40;7.00;;;21.70;78.40;;;;;;4966917;28;20035;-91
2022/01/24 13:25:09;;;;;;;11.73;7.05;;;21.70;82.20;;;;;;4977153;28;20035;-90
2022/01/24 13:27:42;;;;;;;10.20;6.13;;;21.70;74.50;;;;;;4960785;28;20026;-90
2022/01/24 13:30:24;;;;;;;10.37;6.33;;;21.60;77.30;;;;;;4953817;28;20237;-90
2022/01/24 13:32:58;;;;;;;9.95;6.28;;;21.60;74.50;;;;;;4959862;28;20032;-88
2022/01/24 13:35:31;;;;;;;9.73;5.97;;;21.50;77.40;;;;;;4961481;28;20102;-87
2022/01/24 13:37:57;;;;;;;10.85;6.20;;;21.40;78.90;;;;;;4991225;28;20420;-88
2022/01/24 13:40:52;;;;;;;10.60;6.47;;;21.40;81.90;;;;;;4962766;28;20035;-88
2022/01/24 13:43:35;;;;;;;8.88;5.43;;;21.40;76.00;;;;;;4959361;28;20030;-87
2022/01/24 13:46:12;;;;;;;9.85;6.00;;;21.40;77.60;;;;;;4962204;28;20082;-87
2022/01/24 13:48:44;;;;;;;10.15;6.43;;;21.40;80.90;;;;;;4948703;28;20026;-87
2022/01/24 13:51:12;;;;;;;9.50;5.97;;;21.40;79.70;;;;;;4959884;28;20085;-87
2022/01/24 13:53:47;;;;;;;11.57;6.65;;;21.30;79.30;;;;;;4995498;28;20615;-88
2022/01/24 13:56:34;;;;;;;10.38;6.68;;;21.20;76.10;;;;;;4975097;28;20631;-87
2022/01/24 13:59:06;;;;;;;10.95;6.55;;;21.00;74.50;;;;;;4986800;28;20023;-88
2022/01/24 14:01:34;;;;;;;11.00;6.47;;;20.90;75.10;;;;;;4969806;28;20049;-87
2022/01/24 14:04:03;;;;;;;11.50;6.63;;;20.80;77.70;;;;;;4947340;28;20085;-88
2022/01/24 14:06:37;;;;;;;12.27;6.90;;;20.60;76.20;;;;;;4957374;28;20030;-88
2022/01/24 14:09:08;;;;;;;11.18;6.60;;;20.50;75.80;;;;;;4960748;28;20117;-88
2022/01/24 14:11:43;;;;;;;10.98;6.45;;;20.40;75.10;;;;;;4946570;28;20112;-88
2022/01/24 14:14:13;;;;;;;10.65;6.60;;;20.30;75.40;;;;;;4954336;28;20135;-88
2022/01/24 14:16:46;;;;;;;12.30;6.70;;;20.10;78.40;;;;;;4974545;28;20030;-88
2022/01/24 14:19:12;;;;;;;11.93;6.70;;;20.00;77.10;;;;;;4933467;28;20054;-88
2022/01/24 14:21:38;;;;;;;12.50;6.57;;;19.90;77.20;;;;;;4991060;28;20480;-88
2022/01/24 14:24:07;;;;;;;12.17;6.67;;;19.80;78.60;;;;;;4961968;28;20023;-88
2022/01/24 14:26:34;;;;;;;11.38;6.40;;;19.70;78.80;;;;;;4961005;28;20664;-88
2022/01/24 14:29:14;;;;;;;11.38;6.47;;;19.60;79.10;;;;;;4963506;28;20539;-88
2022/01/24 14:31:44;;;;;;;10.88;6.43;;;19.60;75.50;;;;;;4991811;28;20389;-89
2022/01/24 14:34:15;;;;;;;11.23;6.27;;;19.50;78.40;;;;;;4932207;28;20041;-89
2022/01/24 14:36:41;;;;;;;12.55;6.70;;;19.40;76.90;;;;;;4958494;28;20031;-89
2022/01/24 14:39:11;;;;;;;11.98;6.97;;;19.40;78.10;;;;;;4954916;28;20022;-89
2022/01/24 14:41:46;;;;;;;10.90;6.30;;;19.20;75.30;;;;;;4983309;28;20400;-89
2022/01/24 14:46:59;;;;;;;11.25;5.88;;;18.60;74.20;;;;;;4984243;28;20094;-88
2022/01/24 14:49:27;;;;;;;11.80;6.10;;;18.20;74.20;;;;;;4962149;28;20196;-88
2022/01/24 14:51:59;;;;;;;12.75;6.50;;;17.90;72.80;;;;;;4948776;28;20065;-89
2022/01/24 14:54:27;;;;;;;13.90;6.95;;;17.50;72.70;;;;;;4985040;28;20026;-88
2022/01/24 14:56:55;;;;;;;13.47;7.50;;;17.10;73.00;;;;;;4978971;28;20085;-88
2022/01/24 14:59:22;;;;;;;14.05;6.82;;;16.80;74.40;;;;;;4945724;28;20354;-89
2022/01/24 15:01:49;;;;;;;13.07;6.68;;;16.40;74.80;;;;;;4955182;28;20030;-89
2022/01/24 15:04:15;;;;;;;14.13;6.60;;;16.20;75.50;;;;;;4965430;28;20030;-88